Pucheng, China
Current Conditions -  °F | °C
As of 1:00 AM on Friday 31 Oct 2014 (Local Time) from ZSFZ Reporting Station
Clear Clear  
Wind Chill: 72°   Ceiling: Unl
Heat Index: 72°   Visibility: 5mi
Dew Point: 66°   Wind: 7mph
Humidity: 83%   Direction: 350°N
Pressure: 30"   Gusts: NA
Location:  27.92°N, 118.53°E
Report Text: ZSFZ 301700Z 35003MPS 320V020 8000 NSC 22/19 Q1016 NOSIG
Loading
Personal Weather Stations






























Interactive Weather Map
Tropical Storm Tracking
New forecast layout! Learn more

10-Day Weather Forecast

Advertisements
Track Severe Weather on mobile